createdAt,value
2022-10-21T00:02:10.228Z,94.68
2022-10-21T00:04:37.988Z,94.29
2022-10-21T00:07:05.625Z,94.29
2022-10-21T00:09:33.471Z,94.42
2022-10-21T00:12:01.155Z,94.41
2022-10-21T00:14:28.857Z,94.52
2022-10-21T00:16:56.482Z,94.12
2022-10-21T00:19:25.544Z,93.84
2022-10-21T00:21:53.226Z,94.04
2022-10-21T00:24:20.828Z,94.03
2022-10-21T00:26:50.499Z,94.49
2022-10-21T00:29:18.229Z,94.11
2022-10-21T00:31:45.889Z,94.43
2022-10-21T00:34:13.646Z,94.11
2022-10-21T00:36:42.661Z,94.44
2022-10-21T00:39:10.269Z,94.64
2022-10-21T00:41:37.957Z,94.58
2022-10-21T00:44:07.299Z,94.80
2022-10-21T00:46:38.789Z,95.01
2022-10-21T00:49:10.360Z,95.06
2022-10-21T00:51:38.598Z,94.69
2022-10-21T00:54:07.825Z,95.21
2022-10-21T00:56:35.987Z,95.44
2022-10-21T00:59:05.323Z,95.71
2022-10-21T01:01:33.229Z,95.79
2022-10-21T01:04:03.650Z,96.04
2022-10-21T01:06:32.047Z,96.30
2022-10-21T01:09:00.544Z,96.56
2022-10-21T01:11:31.426Z,96.46
2022-10-21T01:14:09.221Z,96.68
2022-10-21T01:16:48.128Z,96.84
2022-10-21T01:19:30.579Z,96.76
2022-10-21T01:22:00.398Z,96.87
2022-10-21T01:24:54.973Z,97.06
2022-10-21T01:27:30.135Z,97.34
2022-10-21T01:30:15.977Z,96.98
2022-10-21T01:32:53.416Z,97.08
2022-10-21T01:35:22.780Z,96.80
2022-10-21T01:37:57.240Z,96.46
2022-10-21T01:40:28.155Z,96.47
2022-10-21T01:42:58.301Z,96.49
2022-10-21T01:45:30.972Z,96.69
2022-10-21T01:48:03.018Z,96.02
2022-10-21T01:50:34.721Z,95.70
2022-10-21T01:53:07.587Z,95.69
2022-10-21T01:55:35.927Z,96.14
2022-10-21T01:58:05.383Z,96.29
2022-10-21T02:00:34.322Z,96.42
2022-10-21T02:03:06.379Z,96.25
2022-10-21T02:05:35.578Z,96.29
2022-10-21T02:08:03.431Z,96.82
2022-10-21T02:10:34.878Z,96.47
2022-10-21T02:13:05.330Z,96.57
2022-10-21T02:15:34.185Z,96.98
2022-10-21T02:18:06.011Z,96.89
2022-10-21T02:20:37.330Z,97.34
2022-10-21T02:23:06.282Z,96.73
2022-10-21T02:25:35.786Z,96.51
2022-10-21T02:28:04.830Z,96.98
2022-10-21T02:30:40.506Z,96.76
2022-10-21T02:33:12.337Z,97.28
2022-10-21T02:35:45.195Z,97.18
2022-10-21T02:38:18.610Z,97.57
2022-10-21T02:40:49.479Z,97.44
2022-10-21T02:43:20.102Z,97.45
2022-10-21T02:45:48.265Z,97.32
2022-10-21T02:48:17.789Z,96.79
2022-10-21T02:50:45.419Z,96.92
2022-10-21T02:53:14.712Z,96.75
2022-10-21T02:55:42.602Z,96.08
2022-10-21T02:58:10.374Z,95.56
2022-10-21T03:00:38.021Z,95.43
2022-10-21T03:03:05.786Z,95.58
2022-10-21T03:05:34.843Z,95.53
2022-10-21T03:08:02.548Z,95.80
2022-10-21T03:10:30.200Z,96.16
2022-10-21T03:12:57.937Z,96.38
2022-10-21T03:15:25.627Z,96.62
2022-10-21T03:17:53.309Z,96.75
2022-10-21T03:20:20.996Z,96.52
2022-10-21T03:22:50.069Z,96.51
2022-10-21T03:25:17.983Z,96.63
2022-10-21T03:27:45.661Z,96.50
2022-10-21T03:30:13.303Z,96.48
2022-10-21T03:32:41.222Z,96.84
2022-10-21T03:35:09.588Z,96.70
2022-10-21T03:37:37.270Z,96.50
2022-10-21T03:40:11.478Z,96.84
2022-10-21T03:42:40.498Z,97.30
2022-10-21T03:45:09.650Z,97.61
2022-10-21T03:47:37.353Z,97.43
2022-10-21T03:50:08.919Z,97.46
2022-10-21T03:52:40.418Z,97.70
2022-10-21T03:55:10.396Z,97.22
2022-10-21T03:57:38.444Z,97.45
2022-10-21T04:00:07.535Z,97.53
2022-10-21T04:02:35.350Z,97.30
2022-10-21T04:05:03.110Z,97.27
2022-10-21T04:07:30.718Z,97.17
2022-10-21T04:09:58.326Z,97.54
2022-10-21T04:12:27.379Z,97.57
2022-10-21T04:14:55.006Z,97.75
2022-10-21T04:17:22.628Z,97.63
2022-10-21T04:19:50.278Z,97.49
2022-10-21T04:22:17.905Z,98.05
2022-10-21T04:24:45.549Z,98.04
2022-10-21T04:27:13.248Z,98.23
2022-10-21T04:29:42.344Z,98.41
2022-10-21T04:32:10.011Z,98.73
2022-10-21T04:34:37.698Z,98.74
2022-10-21T04:37:05.502Z,98.53
2022-10-21T04:39:33.236Z,98.12
2022-10-21T04:42:00.881Z,98.07
2022-10-21T04:44:28.518Z,98.40
2022-10-21T04:46:57.513Z,98.35
2022-10-21T04:49:25.148Z,98.06
2022-10-21T04:51:52.806Z,98.00
2022-10-21T04:54:20.590Z,97.74
2022-10-21T04:56:48.354Z,98.17
2022-10-21T04:59:16.026Z,97.79
2022-10-21T05:01:43.699Z,97.57
2022-10-21T05:04:12.786Z,97.67
2022-10-21T05:06:40.707Z,97.24
2022-10-21T05:09:10.056Z,97.27
2022-10-21T05:11:37.736Z,97.41
2022-10-21T05:14:05.370Z,97.20
2022-10-21T05:16:33.036Z,97.81
2022-10-21T05:19:00.749Z,97.67
2022-10-21T05:21:29.862Z,97.89
2022-10-21T05:23:57.571Z,97.54
2022-10-21T05:26:25.228Z,97.79
2022-10-21T05:28:52.835Z,97.83
2022-10-21T05:31:20.418Z,97.37
2022-10-21T05:33:48.058Z,97.51
2022-10-21T05:36:17.561Z,97.08
2022-10-21T05:38:48.585Z,97.11
2022-10-21T05:41:17.073Z,97.16
2022-10-21T05:43:44.729Z,97.10
2022-10-21T05:46:12.494Z,97.09
2022-10-21T05:48:40.202Z,96.98
2022-10-21T05:51:08.661Z,97.11
2022-10-21T05:53:36.576Z,96.78
2022-10-21T05:56:07.464Z,96.73
2022-10-21T05:58:35.575Z,96.57
2022-10-21T06:01:03.824Z,96.59
2022-10-21T06:03:33.332Z,96.57
2022-10-21T06:06:02.364Z,96.62
2022-10-21T06:08:30.814Z,96.72
2022-10-21T06:11:02.554Z,96.25
2022-10-21T06:13:31.967Z,96.60
2022-10-21T06:15:59.811Z,96.15
2022-10-21T06:18:28.056Z,96.37
2022-10-21T06:20:55.763Z,95.85
2022-10-21T06:23:23.544Z,96.27
2022-10-21T06:25:57.964Z,95.74
2022-10-21T06:28:25.946Z,95.76
2022-10-21T06:30:55.206Z,95.78
2022-10-21T06:33:26.172Z,95.29
2022-10-21T06:35:55.056Z,95.22
2022-10-21T06:38:22.721Z,95.24
2022-10-21T06:40:50.374Z,95.22
2022-10-21T06:43:18.114Z,94.87
2022-10-21T06:45:46.205Z,95.29
2022-10-21T06:48:15.217Z,95.40
2022-10-21T06:50:42.859Z,95.57
2022-10-21T06:53:10.544Z,95.32
2022-10-21T06:55:38.140Z,95.46
2022-10-21T06:58:05.788Z,95.55
2022-10-21T07:00:33.791Z,95.63
2022-10-21T07:03:01.380Z,95.44
2022-10-21T07:05:30.428Z,95.75
2022-10-21T07:07:58.059Z,95.44
2022-10-21T07:10:25.759Z,95.58
2022-10-21T07:12:53.442Z,95.80
2022-10-21T07:15:21.393Z,96.02
2022-10-21T07:17:48.968Z,96.51
2022-10-21T07:20:16.731Z,96.97
2022-10-21T07:22:45.789Z,97.47
2022-10-21T07:25:13.782Z,97.82
2022-10-21T07:27:43.555Z,97.76
2022-10-21T07:30:13.842Z,98.12
2022-10-21T07:32:41.510Z,98.24
2022-10-21T07:35:09.510Z,97.70
2022-10-21T07:37:37.403Z,97.78
2022-10-21T07:40:09.146Z,97.51
2022-10-21T07:42:36.892Z,97.63
2022-10-21T07:45:04.935Z,97.41
2022-10-21T07:47:32.636Z,97.38
2022-10-21T07:50:00.279Z,97.33
2022-10-21T07:52:28.186Z,97.10
2022-10-21T07:54:57.277Z,97.33
2022-10-21T07:57:26.332Z,96.99
2022-10-21T07:59:54.018Z,97.42
2022-10-21T08:02:23.959Z,97.24
2022-10-21T08:04:52.146Z,97.50
2022-10-21T08:07:19.813Z,97.83
2022-10-21T08:09:47.438Z,97.84
2022-10-21T08:12:15.492Z,97.89
2022-10-21T08:14:44.739Z,97.93
2022-10-21T08:17:12.331Z,97.89
2022-10-21T08:19:39.978Z,98.20
2022-10-21T08:22:07.826Z,98.05
2022-10-21T08:24:39.875Z,98.27
2022-10-21T08:27:09.957Z,98.34
2022-10-21T08:29:39.903Z,97.96
2022-10-21T08:32:09.520Z,98.52
2022-10-21T08:34:38.230Z,98.65
2022-10-21T08:37:05.994Z,98.82
2022-10-21T08:39:33.663Z,98.56
2022-10-21T08:42:08.067Z,98.12
2022-10-21T08:44:46.174Z,98.45
2022-10-21T08:47:24.031Z,98.45
2022-10-21T08:49:57.353Z,99.04
2022-10-21T08:52:28.488Z,98.96
2022-10-21T08:54:58.458Z,98.66
2022-10-21T08:57:26.458Z,98.41
2022-10-21T08:59:54.616Z,98.05
2022-10-21T09:02:41.549Z,98.72
2022-10-21T09:05:30.250Z,99.50
2022-10-21T09:08:15.389Z,98.59
2022-10-21T09:10:54.734Z,99.19
2022-10-21T09:13:31.155Z,97.98
2022-10-21T09:16:06.652Z,97.97
2022-10-21T09:18:45.446Z,97.93
2022-10-21T09:21:21.099Z,98.17
2022-10-21T09:23:55.088Z,97.97
2022-10-21T09:26:36.303Z,97.95
2022-10-21T09:29:16.801Z,97.61
2022-10-21T09:31:45.758Z,97.96
2022-10-21T09:34:21.990Z,97.79
2022-10-21T09:36:51.242Z,97.84
2022-10-21T09:39:21.342Z,97.36
2022-10-21T09:41:55.425Z,97.55
2022-10-21T09:44:26.098Z,98.52
2022-10-21T09:46:55.358Z,97.93
2022-10-21T09:50:01.601Z,98.04
2022-10-21T09:52:18.781Z,97.66
2022-10-21T09:54:46.496Z,98.07
2022-10-21T09:57:15.719Z,97.35
2022-10-21T09:59:54.344Z,97.77
2022-10-21T10:02:29.146Z,97.92
2022-10-21T10:04:58.753Z,98.00
2022-10-21T10:07:34.686Z,98.95
2022-10-21T10:10:03.015Z,98.83
2022-10-21T10:12:30.664Z,98.47
2022-10-21T10:14:58.443Z,98.79
2022-10-21T10:17:29.861Z,98.23
2022-10-21T10:20:32.142Z,98.63
2022-10-21T10:23:11.234Z,98.94
2022-10-21T10:25:40.048Z,98.54
2022-10-21T10:28:20.108Z,98.49
2022-10-21T10:30:49.642Z,98.82
2022-10-21T10:33:20.719Z,97.91
2022-10-21T10:35:50.730Z,98.01
2022-10-21T10:38:26.446Z,98.63
2022-10-21T10:40:56.418Z,98.63
2022-10-21T10:43:29.442Z,98.46
2022-10-21T10:45:59.675Z,98.30
2022-10-21T10:48:32.652Z,98.78
2022-10-21T10:51:01.645Z,98.00
2022-10-21T10:53:31.962Z,98.37
2022-10-21T10:56:08.766Z,98.12
2022-10-21T10:58:38.171Z,98.63
2022-10-21T11:01:10.990Z,98.27
2022-10-21T11:03:42.392Z,98.33
2022-10-21T11:06:16.825Z,98.71
2022-10-21T11:08:48.580Z,98.49
2022-10-21T11:11:23.304Z,98.52
2022-10-21T11:13:51.009Z,98.39
2022-10-21T11:16:50.545Z,98.08
2022-10-21T11:19:29.116Z,98.53
2022-10-21T11:22:06.266Z,98.50
2022-10-21T11:24:51.330Z,98.99
2022-10-21T11:27:26.171Z,98.69
2022-10-21T11:30:01.707Z,98.87
2022-10-21T11:32:36.422Z,99.13
2022-10-21T11:35:16.451Z,99.24
2022-10-21T11:37:58.590Z,98.92
2022-10-21T11:40:32.137Z,99.20
2022-10-21T11:43:05.101Z,99.16
2022-10-21T11:45:40.751Z,99.38
2022-10-21T11:48:18.099Z,99.41
2022-10-21T11:50:49.254Z,99.84
2022-10-21T11:53:28.384Z,99.88
2022-10-21T11:56:04.020Z,100.00
2022-10-21T11:58:41.153Z,100.00
2022-10-21T12:01:24.008Z,100.00
2022-10-21T12:04:21.521Z,100.00
2022-10-21T12:06:55.763Z,100.00
2022-10-21T12:09:30.007Z,100.00
2022-10-21T12:12:01.474Z,100.00
2022-10-21T12:14:31.949Z,100.00
2022-10-21T12:17:01.803Z,100.00
2022-10-21T12:19:29.622Z,100.00
2022-10-21T12:21:57.592Z,100.00
2022-10-21T12:24:36.528Z,100.00
2022-10-21T12:27:08.433Z,100.00
2022-10-21T12:29:48.847Z,100.00
2022-10-21T12:32:25.630Z,100.00
2022-10-21T12:34:54.537Z,100.00
2022-10-21T12:37:44.755Z,100.00
2022-10-21T12:40:17.421Z,100.00
2022-10-21T12:42:47.778Z,100.00
2022-10-21T12:45:29.176Z,100.00
2022-10-21T12:47:57.436Z,100.00
2022-10-21T12:50:29.564Z,100.00
2022-10-21T12:53:06.357Z,100.00
2022-10-21T12:55:40.195Z,100.00
2022-10-21T12:58:19.641Z,100.00
2022-10-21T13:00:53.528Z,100.00
2022-10-21T13:03:23.015Z,100.00
2022-10-21T13:06:05.778Z,100.00
2022-10-21T13:08:54.988Z,100.00
2022-10-21T13:11:38.197Z,100.00
2022-10-21T13:14:35.321Z,100.00
2022-10-21T13:17:28.971Z,100.00
2022-10-21T13:19:57.630Z,100.00
2022-10-21T13:22:35.299Z,100.00
2022-10-21T13:25:11.932Z,100.00
2022-10-21T13:27:41.546Z,100.00
2022-10-21T13:30:09.621Z,100.00
2022-10-21T13:32:38.116Z,100.00
2022-10-21T13:35:26.532Z,100.00
2022-10-21T13:38:01.070Z,100.00
2022-10-21T13:40:32.909Z,100.00
2022-10-21T13:43:06.420Z,100.00
2022-10-21T13:45:36.442Z,100.00
2022-10-21T13:48:08.545Z,100.00
2022-10-21T13:50:40.043Z,100.00
2022-10-21T13:53:23.005Z,100.00
2022-10-21T13:56:04.198Z,100.00
2022-10-21T13:58:39.122Z,100.00
2022-10-21T14:01:11.608Z,100.00
2022-10-21T14:03:40.247Z,100.00
2022-10-21T14:06:09.557Z,100.00
2022-10-21T14:08:40.560Z,100.00
2022-10-21T14:11:13.917Z,100.00
2022-10-21T14:13:43.086Z,100.00
2022-10-21T14:16:11.559Z,100.00
2022-10-21T14:18:41.486Z,100.00
2022-10-21T14:21:13.102Z,100.00
2022-10-21T14:23:40.828Z,100.00
2022-10-21T14:26:09.954Z,100.00
2022-10-21T14:28:38.278Z,100.00
2022-10-21T14:31:11.414Z,100.00
2022-10-21T14:33:41.259Z,100.00
2022-10-21T14:36:12.605Z,100.00
2022-10-21T14:38:43.441Z,100.00
2022-10-21T14:41:17.907Z,100.00
2022-10-21T14:43:46.805Z,100.00
2022-10-21T14:46:16.662Z,100.00
2022-10-21T14:48:47.844Z,100.00
2022-10-21T14:51:21.183Z,100.00
2022-10-21T14:53:52.582Z,100.00
2022-10-21T14:56:22.662Z,100.00
2022-10-21T14:58:56.227Z,100.00
2022-10-21T15:01:25.845Z,100.00
2022-10-21T15:03:54.912Z,100.00
2022-10-21T15:06:24.852Z,100.00
2022-10-21T15:09:07.465Z,100.00
2022-10-21T15:11:38.268Z,100.00
2022-10-21T15:14:09.187Z,100.00
2022-10-21T15:16:38.200Z,100.00
2022-10-21T15:19:09.890Z,100.00
2022-10-21T15:21:40.511Z,100.00
2022-10-21T15:24:08.479Z,100.00
2022-10-21T15:26:37.702Z,100.00
2022-10-21T15:29:14.235Z,100.00
2022-10-21T15:31:43.593Z,100.00
2022-10-21T15:34:14.508Z,100.00
2022-10-21T15:36:42.645Z,100.00
2022-10-21T15:39:10.587Z,100.00
2022-10-21T15:41:38.811Z,100.00
2022-10-21T15:44:19.286Z,100.00
2022-10-21T15:46:50.047Z,100.00
2022-10-21T15:49:19.879Z,100.00
2022-10-21T15:51:48.549Z,100.00
2022-10-21T15:54:17.410Z,100.00
2022-10-21T15:56:46.233Z,100.00
2022-10-21T15:59:18.765Z,100.00
2022-10-21T16:01:48.237Z,100.00
2022-10-21T16:04:16.126Z,100.00
2022-10-21T16:06:47.805Z,100.00
2022-10-21T16:09:20.498Z,100.00
2022-10-21T16:11:58.920Z,100.00
2022-10-21T16:14:29.635Z,100.00
2022-10-21T16:16:59.977Z,100.00
2022-10-21T16:19:28.038Z,100.00
2022-10-21T16:21:55.635Z,100.00
2022-10-21T16:24:23.328Z,100.00
2022-10-21T16:26:51.300Z,100.00
2022-10-21T16:29:20.832Z,100.00
2022-10-21T16:31:48.877Z,100.00
2022-10-21T16:34:18.054Z,100.00
2022-10-21T16:36:45.719Z,100.00
2022-10-21T16:39:15.767Z,100.00
2022-10-21T16:41:43.493Z,100.00
2022-10-21T16:44:11.172Z,100.00
2022-10-21T16:46:40.281Z,100.00
2022-10-21T16:49:13.045Z,100.00
2022-10-21T16:51:43.081Z,100.00
2022-10-21T16:54:11.415Z,100.00
2022-10-21T16:56:39.179Z,100.00
2022-10-21T16:59:07.119Z,100.00
2022-10-21T17:01:35.072Z,100.00
2022-10-21T17:04:03.002Z,100.00
2022-10-21T17:06:30.758Z,100.00
2022-10-21T17:08:59.824Z,100.00
2022-10-21T17:11:33.077Z,100.00
2022-10-21T17:14:01.966Z,100.00
2022-10-21T17:16:29.745Z,100.00
2022-10-21T17:18:57.451Z,100.00
2022-10-21T17:21:26.573Z,100.00
2022-10-21T17:23:54.568Z,100.00
2022-10-21T17:26:23.889Z,100.00
2022-10-21T17:28:53.855Z,100.00
2022-10-21T17:31:24.057Z,100.00
2022-10-21T17:33:52.867Z,100.00
2022-10-21T17:36:20.519Z,100.00
2022-10-21T17:38:48.549Z,100.00
2022-10-21T17:41:17.785Z,100.00
2022-10-21T17:43:47.223Z,100.00
2022-10-21T17:46:18.822Z,100.00
2022-10-21T17:48:46.563Z,100.00
2022-10-21T17:51:14.183Z,100.00
2022-10-21T17:53:41.810Z,100.00
2022-10-21T17:56:09.453Z,100.00
2022-10-21T17:58:37.113Z,100.00
2022-10-21T18:01:09.526Z,100.00
2022-10-21T18:03:37.557Z,100.00
2022-10-21T18:06:06.571Z,100.00
2022-10-21T18:08:34.359Z,100.00
2022-10-21T18:11:02.622Z,99.84
2022-10-21T18:13:31.613Z,99.81
2022-10-21T18:16:03.379Z,99.43
2022-10-21T18:18:32.847Z,99.39
2022-10-21T18:21:05.254Z,98.89
2022-10-21T18:23:33.159Z,98.86
2022-10-21T18:26:03.743Z,98.88
2022-10-21T18:28:32.332Z,98.41
2022-10-21T18:31:01.326Z,98.45
2022-10-21T18:33:29.103Z,98.04
2022-10-21T18:35:58.227Z,98.08
2022-10-21T18:38:25.885Z,98.06
2022-10-21T18:41:01.827Z,97.62
2022-10-21T18:43:30.049Z,97.68
2022-10-21T18:45:57.737Z,97.32
2022-10-21T18:48:25.375Z,97.73
2022-10-21T18:50:53.045Z,97.67
2022-10-21T18:53:22.326Z,97.67
2022-10-21T18:55:49.995Z,97.59
2022-10-21T18:58:17.880Z,97.55
2022-10-21T19:00:45.478Z,97.55
2022-10-21T19:03:13.170Z,98.10
2022-10-21T19:05:43.011Z,98.99
2022-10-21T19:08:10.587Z,99.21
2022-10-21T19:10:40.682Z,98.68
2022-10-21T19:13:08.342Z,98.88
2022-10-21T19:15:36.337Z,99.25
2022-10-21T19:18:04.092Z,99.09
2022-10-21T19:20:32.337Z,98.99
2022-10-21T19:23:00.070Z,98.72
2022-10-21T19:25:28.355Z,98.71
2022-10-21T19:27:57.350Z,98.86
2022-10-21T19:30:25.043Z,98.64
2022-10-21T19:32:52.696Z,98.52
2022-10-21T19:35:20.369Z,98.76
2022-10-21T19:37:48.018Z,98.57
2022-10-21T19:40:15.756Z,98.53
2022-10-21T19:42:43.369Z,98.60
2022-10-21T19:45:16.901Z,98.45
2022-10-21T19:47:44.724Z,98.78
2022-10-21T19:50:12.549Z,98.88
2022-10-21T19:52:40.583Z,99.18
2022-10-21T19:55:08.937Z,98.88
2022-10-21T19:57:36.602Z,98.45
2022-10-21T20:00:05.284Z,98.53
2022-10-21T20:02:34.688Z,98.35
2022-10-21T20:05:02.321Z,98.30
2022-10-21T20:07:29.994Z,97.84
2022-10-21T20:09:57.936Z,97.60
2022-10-21T20:12:25.583Z,97.26
2022-10-21T20:14:53.232Z,97.51
2022-10-21T20:17:20.963Z,97.08
2022-10-21T20:19:50.099Z,97.04
2022-10-21T20:22:18.306Z,96.61
2022-10-21T20:24:46.581Z,96.73
2022-10-21T20:27:15.677Z,96.72
2022-10-21T20:29:43.387Z,96.08
2022-10-21T20:32:11.050Z,96.60
2022-10-21T20:34:39.689Z,96.69
2022-10-21T20:37:08.746Z,96.81
2022-10-21T20:39:37.828Z,96.56
2022-10-21T20:42:05.615Z,96.12
2022-10-21T20:44:33.262Z,96.20
2022-10-21T20:47:00.977Z,96.11
2022-10-21T20:49:28.613Z,95.71
2022-10-21T20:51:56.226Z,95.88
2022-10-21T20:54:25.936Z,95.89
2022-10-21T20:56:53.644Z,95.63
2022-10-21T20:59:21.327Z,95.91
2022-10-21T21:01:49.070Z,96.01
2022-10-21T21:04:18.156Z,96.00
2022-10-21T21:06:46.977Z,96.36
2022-10-21T21:12:04.856Z,95.72
2022-10-21T21:14:33.026Z,95.78
2022-10-21T21:17:00.690Z,96.50
2022-10-21T21:19:28.480Z,96.06
2022-10-21T21:21:56.250Z,96.14
2022-10-21T21:24:23.915Z,96.08
2022-10-21T21:26:51.523Z,96.36
2022-10-21T21:29:20.534Z,96.30
2022-10-21T21:31:48.288Z,96.16
2022-10-21T21:34:15.951Z,95.75
2022-10-21T21:36:43.586Z,95.80
2022-10-21T21:39:11.492Z,95.77
2022-10-21T21:41:39.226Z,95.90
2022-10-21T21:44:07.362Z,95.43
2022-10-21T21:46:36.413Z,95.54
2022-10-21T21:49:06.250Z,95.67
2022-10-21T21:51:35.350Z,95.32
2022-10-21T21:54:03.015Z,95.12
2022-10-21T21:56:30.763Z,95.24
2022-10-21T21:58:58.607Z,95.17
2022-10-21T22:01:27.485Z,95.37
2022-10-21T22:03:56.688Z,94.99
2022-10-21T22:09:00.882Z,94.97
2022-10-21T22:11:30.929Z,94.99
2022-10-21T22:13:59.247Z,94.97
2022-10-21T22:16:29.932Z,95.14
2022-10-21T22:19:00.303Z,94.65
2022-10-21T22:21:28.059Z,93.97
2022-10-21T22:23:55.845Z,94.18
2022-10-21T22:26:26.576Z,94.03
2022-10-21T22:28:54.347Z,93.71
2022-10-21T22:31:27.412Z,94.02
2022-10-21T22:34:00.740Z,94.06
2022-10-21T22:36:28.554Z,94.07
2022-10-21T22:38:56.197Z,94.10
2022-10-21T22:41:23.840Z,93.85
2022-10-21T22:43:51.443Z,94.11
2022-10-21T22:46:33.401Z,94.21
2022-10-21T22:49:03.684Z,93.94
2022-10-21T22:51:31.513Z,94.13
2022-10-21T22:53:59.259Z,94.11
2022-10-21T22:56:27.781Z,93.88
2022-10-21T22:58:57.130Z,94.09
2022-10-21T23:01:28.734Z,93.64
2022-10-21T23:03:57.229Z,94.01
2022-10-21T23:06:26.227Z,93.58
2022-10-21T23:08:53.945Z,93.77
2022-10-21T23:11:21.670Z,93.19
2022-10-21T23:14:02.098Z,93.00
2022-10-21T23:16:32.028Z,93.18
2022-10-21T23:18:59.827Z,92.78
2022-10-21T23:21:29.034Z,92.70
2022-10-21T23:23:57.189Z,92.84
2022-10-21T23:26:24.910Z,92.64
2022-10-21T23:28:52.623Z,92.88
2022-10-21T23:31:20.830Z,92.86
2022-10-21T23:33:48.901Z,93.02
2022-10-21T23:36:16.582Z,93.32
2022-10-21T23:38:45.655Z,92.91
2022-10-21T23:41:13.399Z,92.97
2022-10-21T23:43:41.005Z,93.04
2022-10-21T23:46:08.583Z,93.23
2022-10-21T23:48:36.321Z,93.24
2022-10-21T23:51:04.276Z,93.42
2022-10-21T23:53:31.949Z,92.72
2022-10-21T23:56:00.981Z,93.23
2022-10-21T23:58:28.625Z,92.75
